sensor_id;sensor_type;location;lat;lon;timestamp;P1;durP1;ratioP1;P2;durP2;ratioP2
23317;SDS011;11831;55.918;37.746;2022-12-07T00:01:14;6.43;;;3.37;;
23317;SDS011;11831;55.918;37.746;2022-12-07T00:03:49;5.95;;;3.12;;
23317;SDS011;11831;55.918;37.746;2022-12-07T00:06:17;7.40;;;2.97;;
23317;SDS011;11831;55.918;37.746;2022-12-07T00:08:44;5.43;;;3.03;;
23317;SDS011;11831;55.918;37.746;2022-12-07T00:11:13;7.87;;;3.25;;
23317;SDS011;11831;55.918;37.746;2022-12-07T00:13:44;4.35;;;2.87;;
23317;SDS011;11831;55.918;37.746;2022-12-07T00:16:12;6.68;;;3.40;;
23317;SDS011;11831;55.918;37.746;2022-12-07T00:18:45;6.87;;;2.90;;
23317;SDS011;11831;55.918;37.746;2022-12-07T00:23:43;6.28;;;3.15;;
23317;SDS011;11831;55.918;37.746;2022-12-07T00:26:11;7.97;;;3.28;;
23317;SDS011;11831;55.918;37.746;2022-12-07T00:28:39;6.10;;;3.30;;
23317;SDS011;11831;55.918;37.746;2022-12-07T00:31:06;7.35;;;3.60;;
23317;SDS011;11831;55.918;37.746;2022-12-07T00:33:35;7.12;;;3.17;;
23317;SDS011;11831;55.918;37.746;2022-12-07T00:36:03;6.53;;;3.20;;
23317;SDS011;11831;55.918;37.746;2022-12-07T00:38:33;7.93;;;3.10;;
23317;SDS011;11831;55.918;37.746;2022-12-07T00:41:02;5.47;;;3.20;;
23317;SDS011;11831;55.918;37.746;2022-12-07T00:43:33;6.10;;;3.53;;
23317;SDS011;11831;55.918;37.746;2022-12-07T00:45:59;7.28;;;3.60;;
23317;SDS011;11831;55.918;37.746;2022-12-07T00:48:26;5.22;;;3.37;;
23317;SDS011;11831;55.918;37.746;2022-12-07T00:50:52;6.50;;;3.28;;
23317;SDS011;11831;55.918;37.746;2022-12-07T00:53:19;8.23;;;3.75;;
23317;SDS011;11831;55.918;37.746;2022-12-07T00:55:45;5.87;;;3.15;;
23317;SDS011;11831;55.918;37.746;2022-12-07T00:58:12;5.97;;;3.47;;
23317;SDS011;11831;55.918;37.746;2022-12-07T01:00:39;5.78;;;3.30;;
23317;SDS011;11831;55.918;37.746;2022-12-07T01:03:08;6.82;;;3.53;;
23317;SDS011;11831;55.918;37.746;2022-12-07T01:05:36;7.00;;;3.10;;
23317;SDS011;11831;55.918;37.746;2022-12-07T01:08:03;6.15;;;3.53;;
23317;SDS011;11831;55.918;37.746;2022-12-07T01:10:30;6.12;;;3.67;;
23317;SDS011;11831;55.918;37.746;2022-12-07T01:12:57;6.03;;;3.78;;
23317;SDS011;11831;55.918;37.746;2022-12-07T01:15:25;7.25;;;3.55;;
23317;SDS011;11831;55.918;37.746;2022-12-07T01:17:52;6.10;;;3.65;;
23317;SDS011;11831;55.918;37.746;2022-12-07T01:20:20;7.10;;;3.62;;
23317;SDS011;11831;55.918;37.746;2022-12-07T01:22:46;6.72;;;3.37;;
23317;SDS011;11831;55.918;37.746;2022-12-07T01:25:13;8.40;;;3.75;;
23317;SDS011;11831;55.918;37.746;2022-12-07T01:27:39;7.57;;;3.53;;
23317;SDS011;11831;55.918;37.746;2022-12-07T01:30:06;6.40;;;4.10;;
23317;SDS011;11831;55.918;37.746;2022-12-07T01:32:33;6.93;;;3.85;;
23317;SDS011;11831;55.918;37.746;2022-12-07T01:35:00;5.95;;;3.55;;
23317;SDS011;11831;55.918;37.746;2022-12-07T01:37:26;6.85;;;3.87;;
23317;SDS011;11831;55.918;37.746;2022-12-07T01:39:52;6.10;;;3.85;;
23317;SDS011;11831;55.918;37.746;2022-12-07T01:42:19;7.15;;;3.92;;
23317;SDS011;11831;55.918;37.746;2022-12-07T01:47:45;6.55;;;3.20;;
23317;SDS011;11831;55.918;37.746;2022-12-07T01:50:17;8.77;;;4.05;;
23317;SDS011;11831;55.918;37.746;2022-12-07T01:52:44;8.77;;;3.90;;
23317;SDS011;11831;55.918;37.746;2022-12-07T01:55:13;6.43;;;3.37;;
23317;SDS011;11831;55.918;37.746;2022-12-07T01:57:41;7.50;;;4.05;;
23317;SDS011;11831;55.918;37.746;2022-12-07T02:00:11;6.67;;;4.13;;
23317;SDS011;11831;55.918;37.746;2022-12-07T02:02:41;6.72;;;4.05;;
23317;SDS011;11831;55.918;37.746;2022-12-07T02:05:21;6.37;;;3.78;;
23317;SDS011;11831;55.918;37.746;2022-12-07T02:07:50;8.32;;;4.05;;
23317;SDS011;11831;55.918;37.746;2022-12-07T02:10:22;9.27;;;4.57;;
23317;SDS011;11831;55.918;37.746;2022-12-07T02:12:53;13.50;;;4.75;;
23317;SDS011;11831;55.918;37.746;2022-12-07T02:17:59;9.15;;;4.37;;
23317;SDS011;11831;55.918;37.746;2022-12-07T02:20:34;9.07;;;4.20;;
23317;SDS011;11831;55.918;37.746;2022-12-07T02:23:29;8.52;;;4.43;;
23317;SDS011;11831;55.918;37.746;2022-12-07T02:29:10;10.85;;;4.87;;
23317;SDS011;11831;55.918;37.746;2022-12-07T02:32:14;7.93;;;3.97;;
23317;SDS011;11831;55.918;37.746;2022-12-07T02:35:05;7.25;;;4.25;;
23317;SDS011;11831;55.918;37.746;2022-12-07T02:40:22;9.30;;;5.05;;
23317;SDS011;11831;55.918;37.746;2022-12-07T02:43:04;10.43;;;4.93;;
23317;SDS011;11831;55.918;37.746;2022-12-07T02:45:37;9.05;;;4.55;;
23317;SDS011;11831;55.918;37.746;2022-12-07T02:48:06;8.05;;;4.87;;
23317;SDS011;11831;55.918;37.746;2022-12-07T02:50:35;7.72;;;4.75;;
23317;SDS011;11831;55.918;37.746;2022-12-07T02:53:02;9.02;;;4.57;;
23317;SDS011;11831;55.918;37.746;2022-12-07T02:55:30;9.40;;;5.00;;
23317;SDS011;11831;55.918;37.746;2022-12-07T02:58:22;8.63;;;5.00;;
23317;SDS011;11831;55.918;37.746;2022-12-07T03:01:04;10.82;;;5.20;;
23317;SDS011;11831;55.918;37.746;2022-12-07T03:03:42;12.32;;;5.50;;
23317;SDS011;11831;55.918;37.746;2022-12-07T03:06:28;9.13;;;4.97;;
23317;SDS011;11831;55.918;37.746;2022-12-07T03:09:18;9.25;;;5.03;;
23317;SDS011;11831;55.918;37.746;2022-12-07T03:11:50;8.70;;;5.12;;
23317;SDS011;11831;55.918;37.746;2022-12-07T03:14:30;10.43;;;5.10;;
23317;SDS011;11831;55.918;37.746;2022-12-07T03:17:03;12.37;;;6.22;;
23317;SDS011;11831;55.918;37.746;2022-12-07T03:19:39;15.10;;;5.70;;
23317;SDS011;11831;55.918;37.746;2022-12-07T03:22:08;8.35;;;4.55;;
23317;SDS011;11831;55.918;37.746;2022-12-07T03:24:39;9.93;;;5.57;;
23317;SDS011;11831;55.918;37.746;2022-12-07T03:27:12;11.45;;;5.97;;
23317;SDS011;11831;55.918;37.746;2022-12-07T03:29:48;11.63;;;5.40;;
23317;SDS011;11831;55.918;37.746;2022-12-07T03:32:33;12.48;;;5.12;;
23317;SDS011;11831;55.918;37.746;2022-12-07T03:35:10;11.55;;;5.72;;
23317;SDS011;11831;55.918;37.746;2022-12-07T03:40:39;10.60;;;5.37;;
23317;SDS011;11831;55.918;37.746;2022-12-07T03:43:08;12.48;;;6.22;;
23317;SDS011;11831;55.918;37.746;2022-12-07T03:45:42;14.82;;;6.28;;
23317;SDS011;11831;55.918;37.746;2022-12-07T03:48:27;12.60;;;6.35;;
23317;SDS011;11831;55.918;37.746;2022-12-07T03:53:46;10.90;;;6.20;;
23317;SDS011;11831;55.918;37.746;2022-12-07T03:56:19;15.85;;;6.72;;
23317;SDS011;11831;55.918;37.746;2022-12-07T03:58:47;14.35;;;6.87;;
23317;SDS011;11831;55.918;37.746;2022-12-07T04:01:14;12.52;;;7.35;;
23317;SDS011;11831;55.918;37.746;2022-12-07T04:03:41;14.75;;;7.32;;
23317;SDS011;11831;55.918;37.746;2022-12-07T04:06:08;17.25;;;7.72;;
23317;SDS011;11831;55.918;37.746;2022-12-07T04:08:34;18.73;;;7.95;;
23317;SDS011;11831;55.918;37.746;2022-12-07T04:11:01;12.50;;;6.75;;
23317;SDS011;11831;55.918;37.746;2022-12-07T04:13:27;12.55;;;7.10;;
23317;SDS011;11831;55.918;37.746;2022-12-07T04:15:54;15.55;;;7.10;;
23317;SDS011;11831;55.918;37.746;2022-12-07T04:18:20;17.67;;;7.73;;
23317;SDS011;11831;55.918;37.746;2022-12-07T04:20:47;17.25;;;7.55;;
23317;SDS011;11831;55.918;37.746;2022-12-07T04:23:13;10.15;;;6.05;;
23317;SDS011;11831;55.918;37.746;2022-12-07T04:25:39;13.75;;;6.93;;
23317;SDS011;11831;55.918;37.746;2022-12-07T04:28:06;15.45;;;7.35;;
23317;SDS011;11831;55.918;37.746;2022-12-07T04:30:33;16.40;;;7.45;;
23317;SDS011;11831;55.918;37.746;2022-12-07T04:32:59;11.93;;;6.60;;
23317;SDS011;11831;55.918;37.746;2022-12-07T04:35:25;13.85;;;6.43;;
23317;SDS011;11831;55.918;37.746;2022-12-07T04:37:52;14.65;;;6.80;;
23317;SDS011;11831;55.918;37.746;2022-12-07T04:40:18;11.65;;;6.07;;
23317;SDS011;11831;55.918;37.746;2022-12-07T04:42:44;14.30;;;6.32;;
23317;SDS011;11831;55.918;37.746;2022-12-07T04:45:11;13.50;;;6.20;;
23317;SDS011;11831;55.918;37.746;2022-12-07T04:47:37;10.38;;;6.22;;
23317;SDS011;11831;55.918;37.746;2022-12-07T04:50:04;15.23;;;6.20;;
23317;SDS011;11831;55.918;37.746;2022-12-07T04:52:31;14.27;;;6.37;;
23317;SDS011;11831;55.918;37.746;2022-12-07T04:54:57;13.38;;;5.57;;
23317;SDS011;11831;55.918;37.746;2022-12-07T04:57:23;13.62;;;6.10;;
23317;SDS011;11831;55.918;37.746;2022-12-07T04:59:50;11.23;;;6.18;;
23317;SDS011;11831;55.918;37.746;2022-12-07T05:02:16;11.38;;;6.30;;
23317;SDS011;11831;55.918;37.746;2022-12-07T05:04:42;16.15;;;6.85;;
23317;SDS011;11831;55.918;37.746;2022-12-07T05:07:08;12.88;;;6.55;;
23317;SDS011;11831;55.918;37.746;2022-12-07T05:09:35;15.38;;;5.93;;
23317;SDS011;11831;55.918;37.746;2022-12-07T05:12:01;10.90;;;5.78;;
23317;SDS011;11831;55.918;37.746;2022-12-07T05:14:28;12.37;;;6.78;;
23317;SDS011;11831;55.918;37.746;2022-12-07T05:16:54;11.50;;;6.20;;
23317;SDS011;11831;55.918;37.746;2022-12-07T05:19:20;10.23;;;6.15;;
23317;SDS011;11831;55.918;37.746;2022-12-07T05:21:47;10.73;;;6.10;;
23317;SDS011;11831;55.918;37.746;2022-12-07T05:24:14;14.32;;;6.32;;
23317;SDS011;11831;55.918;37.746;2022-12-07T05:26:43;18.95;;;6.55;;
23317;SDS011;11831;55.918;37.746;2022-12-07T05:29:11;12.63;;;6.07;;
23317;SDS011;11831;55.918;37.746;2022-12-07T05:31:39;9.52;;;5.37;;
23317;SDS011;11831;55.918;37.746;2022-12-07T05:34:05;10.95;;;6.32;;
23317;SDS011;11831;55.918;37.746;2022-12-07T05:36:31;13.68;;;6.85;;
23317;SDS011;11831;55.918;37.746;2022-12-07T05:38:58;12.80;;;6.47;;
23317;SDS011;11831;55.918;37.746;2022-12-07T05:41:25;10.73;;;6.28;;
23317;SDS011;11831;55.918;37.746;2022-12-07T05:44:10;15.15;;;7.43;;
23317;SDS011;11831;55.918;37.746;2022-12-07T05:46:36;13.20;;;6.75;;
23317;SDS011;11831;55.918;37.746;2022-12-07T05:49:03;12.20;;;6.00;;
23317;SDS011;11831;55.918;37.746;2022-12-07T05:51:29;13.32;;;6.65;;
23317;SDS011;11831;55.918;37.746;2022-12-07T05:53:55;12.82;;;6.70;;
23317;SDS011;11831;55.918;37.746;2022-12-07T05:56:22;14.45;;;7.22;;
23317;SDS011;11831;55.918;37.746;2022-12-07T05:58:49;18.85;;;6.53;;
23317;SDS011;11831;55.918;37.746;2022-12-07T06:01:33;17.10;;;6.68;;
23317;SDS011;11831;55.918;37.746;2022-12-07T06:04:00;14.85;;;7.12;;
23317;SDS011;11831;55.918;37.746;2022-12-07T06:06:26;15.75;;;7.43;;
23317;SDS011;11831;55.918;37.746;2022-12-07T06:08:52;18.98;;;7.10;;
23317;SDS011;11831;55.918;37.746;2022-12-07T06:11:19;18.65;;;7.72;;
23317;SDS011;11831;55.918;37.746;2022-12-07T06:14:04;15.80;;;7.40;;
23317;SDS011;11831;55.918;37.746;2022-12-07T06:16:30;18.30;;;8.45;;
23317;SDS011;11831;55.918;37.746;2022-12-07T06:18:56;15.45;;;7.80;;
23317;SDS011;11831;55.918;37.746;2022-12-07T06:21:23;17.92;;;8.23;;
23317;SDS011;11831;55.918;37.746;2022-12-07T06:23:51;14.13;;;7.40;;
23317;SDS011;11831;55.918;37.746;2022-12-07T06:26:18;15.00;;;7.37;;
23317;SDS011;11831;55.918;37.746;2022-12-07T06:28:44;13.02;;;7.22;;
23317;SDS011;11831;55.918;37.746;2022-12-07T06:31:10;12.18;;;7.45;;
23317;SDS011;11831;55.918;37.746;2022-12-07T06:33:37;14.27;;;7.18;;
23317;SDS011;11831;55.918;37.746;2022-12-07T06:36:03;12.13;;;6.97;;
23317;SDS011;11831;55.918;37.746;2022-12-07T06:38:30;14.68;;;7.43;;
23317;SDS011;11831;55.918;37.746;2022-12-07T06:40:56;13.35;;;7.20;;
23317;SDS011;11831;55.918;37.746;2022-12-07T06:43:22;14.27;;;7.35;;
23317;SDS011;11831;55.918;37.746;2022-12-07T06:45:48;13.38;;;7.07;;
23317;SDS011;11831;55.918;37.746;2022-12-07T06:48:15;15.20;;;7.55;;
23317;SDS011;11831;55.918;37.746;2022-12-07T06:50:43;15.75;;;8.10;;
23317;SDS011;11831;55.918;37.746;2022-12-07T06:53:10;18.95;;;7.97;;
23317;SDS011;11831;55.918;37.746;2022-12-07T06:55:38;14.82;;;7.70;;
23317;SDS011;11831;55.918;37.746;2022-12-07T06:58:04;18.55;;;7.75;;
23317;SDS011;11831;55.918;37.746;2022-12-07T07:00:30;14.52;;;7.30;;
23317;SDS011;11831;55.918;37.746;2022-12-07T07:02:57;13.38;;;7.22;;
23317;SDS011;11831;55.918;37.746;2022-12-07T07:05:23;13.68;;;7.40;;
23317;SDS011;11831;55.918;37.746;2022-12-07T07:07:50;15.85;;;7.32;;
23317;SDS011;11831;55.918;37.746;2022-12-07T07:10:17;13.27;;;7.45;;
23317;SDS011;11831;55.918;37.746;2022-12-07T07:12:43;13.25;;;7.57;;
23317;SDS011;11831;55.918;37.746;2022-12-07T07:15:10;14.70;;;7.43;;
23317;SDS011;11831;55.918;37.746;2022-12-07T07:17:37;14.07;;;7.72;;
23317;SDS011;11831;55.918;37.746;2022-12-07T07:20:04;15.32;;;7.75;;
23317;SDS011;11831;55.918;37.746;2022-12-07T07:22:31;14.00;;;7.32;;
23317;SDS011;11831;55.918;37.746;2022-12-07T07:24:58;15.00;;;7.85;;
23317;SDS011;11831;55.918;37.746;2022-12-07T07:27:27;12.18;;;7.12;;
23317;SDS011;11831;55.918;37.746;2022-12-07T07:29:54;13.65;;;7.30;;
23317;SDS011;11831;55.918;37.746;2022-12-07T07:32:20;12.77;;;7.00;;
23317;SDS011;11831;55.918;37.746;2022-12-07T07:34:48;15.07;;;7.55;;
23317;SDS011;11831;55.918;37.746;2022-12-07T07:37:14;13.73;;;7.45;;
23317;SDS011;11831;55.918;37.746;2022-12-07T07:39:40;14.07;;;7.43;;
23317;SDS011;11831;55.918;37.746;2022-12-07T07:42:07;13.18;;;7.45;;
23317;SDS011;11831;55.918;37.746;2022-12-07T07:44:33;14.48;;;7.43;;
23317;SDS011;11831;55.918;37.746;2022-12-07T07:47:00;16.75;;;8.05;;
23317;SDS011;11831;55.918;37.746;2022-12-07T07:49:27;15.20;;;7.62;;
23317;SDS011;11831;55.918;37.746;2022-12-07T07:51:53;13.95;;;6.40;;
23317;SDS011;11831;55.918;37.746;2022-12-07T07:54:20;15.05;;;7.45;;
23317;SDS011;11831;55.918;37.746;2022-12-07T07:56:46;12.80;;;6.62;;
23317;SDS011;11831;55.918;37.746;2022-12-07T07:59:13;12.80;;;7.72;;
23317;SDS011;11831;55.918;37.746;2022-12-07T08:01:40;13.00;;;7.35;;
23317;SDS011;11831;55.918;37.746;2022-12-07T08:04:07;12.75;;;6.72;;
23317;SDS011;11831;55.918;37.746;2022-12-07T08:06:33;14.10;;;7.47;;
23317;SDS011;11831;55.918;37.746;2022-12-07T08:09:00;12.93;;;7.80;;
23317;SDS011;11831;55.918;37.746;2022-12-07T08:11:27;14.27;;;7.22;;
23317;SDS011;11831;55.918;37.746;2022-12-07T08:13:53;12.80;;;7.05;;
23317;SDS011;11831;55.918;37.746;2022-12-07T08:16:21;12.63;;;7.20;;
23317;SDS011;11831;55.918;37.746;2022-12-07T08:18:47;12.63;;;6.65;;
23317;SDS011;11831;55.918;37.746;2022-12-07T08:21:14;11.88;;;5.97;;
23317;SDS011;11831;55.918;37.746;2022-12-07T08:23:41;11.32;;;7.12;;
23317;SDS011;11831;55.918;37.746;2022-12-07T08:26:09;11.60;;;6.75;;
23317;SDS011;11831;55.918;37.746;2022-12-07T08:28:37;14.13;;;7.45;;
23317;SDS011;11831;55.918;37.746;2022-12-07T08:31:08;11.75;;;6.50;;
23317;SDS011;11831;55.918;37.746;2022-12-07T08:33:38;9.63;;;5.72;;
23317;SDS011;11831;55.918;37.746;2022-12-07T08:36:06;12.80;;;6.10;;
23317;SDS011;11831;55.918;37.746;2022-12-07T08:38:35;14.70;;;6.45;;
23317;SDS011;11831;55.918;37.746;2022-12-07T08:41:02;13.60;;;6.28;;
23317;SDS011;11831;55.918;37.746;2022-12-07T08:43:29;9.82;;;6.12;;
23317;SDS011;11831;55.918;37.746;2022-12-07T08:46:06;11.25;;;6.78;;
23317;SDS011;11831;55.918;37.746;2022-12-07T08:51:06;12.63;;;6.28;;
23317;SDS011;11831;55.918;37.746;2022-12-07T08:53:33;11.25;;;6.75;;
23317;SDS011;11831;55.918;37.746;2022-12-07T08:56:01;12.00;;;6.72;;
23317;SDS011;11831;55.918;37.746;2022-12-07T08:58:28;11.02;;;6.20;;
23317;SDS011;11831;55.918;37.746;2022-12-07T09:00:54;12.02;;;6.57;;
23317;SDS011;11831;55.918;37.746;2022-12-07T09:03:21;15.38;;;6.60;;
23317;SDS011;11831;55.918;37.746;2022-12-07T09:05:47;10.70;;;6.28;;
23317;SDS011;11831;55.918;37.746;2022-12-07T09:08:14;13.05;;;6.57;;
23317;SDS011;11831;55.918;37.746;2022-12-07T09:10:41;13.30;;;6.43;;
23317;SDS011;11831;55.918;37.746;2022-12-07T09:13:07;13.65;;;6.53;;
23317;SDS011;11831;55.918;37.746;2022-12-07T09:15:34;11.45;;;6.72;;
23317;SDS011;11831;55.918;37.746;2022-12-07T09:18:00;11.85;;;6.75;;
23317;SDS011;11831;55.918;37.746;2022-12-07T09:20:27;10.48;;;6.43;;
23317;SDS011;11831;55.918;37.746;2022-12-07T09:22:53;14.05;;;6.95;;
23317;SDS011;11831;55.918;37.746;2022-12-07T09:25:20;12.07;;;6.22;;
23317;SDS011;11831;55.918;37.746;2022-12-07T09:27:47;12.80;;;6.68;;
23317;SDS011;11831;55.918;37.746;2022-12-07T09:30:13;12.40;;;6.37;;
23317;SDS011;11831;55.918;37.746;2022-12-07T09:32:40;12.73;;;6.70;;
23317;SDS011;11831;55.918;37.746;2022-12-07T09:35:06;10.95;;;6.37;;
23317;SDS011;11831;55.918;37.746;2022-12-07T09:37:32;14.00;;;6.60;;
23317;SDS011;11831;55.918;37.746;2022-12-07T09:40:02;10.63;;;5.85;;
23317;SDS011;11831;55.918;37.746;2022-12-07T09:42:32;12.60;;;6.22;;
23317;SDS011;11831;55.918;37.746;2022-12-07T09:45:02;11.38;;;6.12;;
23317;SDS011;11831;55.918;37.746;2022-12-07T09:47:32;11.07;;;6.10;;
23317;SDS011;11831;55.918;37.746;2022-12-07T09:50:21;11.82;;;6.18;;
23317;SDS011;11831;55.918;37.746;2022-12-07T09:52:49;12.20;;;5.87;;
23317;SDS011;11831;55.918;37.746;2022-12-07T09:55:19;14.27;;;6.30;;
23317;SDS011;11831;55.918;37.746;2022-12-07T09:57:50;14.75;;;6.20;;
23317;SDS011;11831;55.918;37.746;2022-12-07T10:00:19;12.20;;;6.25;;
23317;SDS011;11831;55.918;37.746;2022-12-07T10:02:57;10.43;;;6.22;;
23317;SDS011;11831;55.918;37.746;2022-12-07T10:05:27;14.68;;;6.43;;
23317;SDS011;11831;55.918;37.746;2022-12-07T10:07:56;9.68;;;5.57;;
23317;SDS011;11831;55.918;37.746;2022-12-07T10:10:33;15.50;;;6.87;;
23317;SDS011;11831;55.918;37.746;2022-12-07T10:13:02;11.20;;;6.68;;
23317;SDS011;11831;55.918;37.746;2022-12-07T10:21:15;9.13;;;5.90;;
23317;SDS011;11831;55.918;37.746;2022-12-07T10:24:04;14.07;;;6.35;;
23317;SDS011;11831;55.918;37.746;2022-12-07T10:29:30;11.65;;;6.20;;
23317;SDS011;11831;55.918;37.746;2022-12-07T10:32:00;11.55;;;5.95;;
23317;SDS011;11831;55.918;37.746;2022-12-07T10:34:36;8.73;;;5.47;;
23317;SDS011;11831;55.918;37.746;2022-12-07T10:37:21;16.98;;;6.40;;
23317;SDS011;11831;55.918;37.746;2022-12-07T10:39:52;12.20;;;5.80;;
23317;SDS011;11831;55.918;37.746;2022-12-07T10:42:21;12.30;;;6.28;;
23317;SDS011;11831;55.918;37.746;2022-12-07T10:58:54;11.12;;;6.47;;
23317;SDS011;11831;55.918;37.746;2022-12-07T11:10:13;10.57;;;6.05;;
23317;SDS011;11831;55.918;37.746;2022-12-07T11:13:05;9.85;;;5.75;;
23317;SDS011;11831;55.918;37.746;2022-12-07T11:22:06;9.88;;;5.43;;
23317;SDS011;11831;55.918;37.746;2022-12-07T11:24:53;13.77;;;5.50;;
23317;SDS011;11831;55.918;37.746;2022-12-07T11:30:29;10.82;;;5.37;;
23317;SDS011;11831;55.918;37.746;2022-12-07T11:38:25;9.00;;;6.10;;
23317;SDS011;11831;55.918;37.746;2022-12-07T11:41:01;13.45;;;6.57;;
23317;SDS011;11831;55.918;37.746;2022-12-07T11:46:25;13.80;;;5.70;;
23317;SDS011;11831;55.918;37.746;2022-12-07T11:49:02;11.98;;;6.15;;
23317;SDS011;11831;55.918;37.746;2022-12-07T11:51:36;12.23;;;6.20;;
23317;SDS011;11831;55.918;37.746;2022-12-07T11:54:12;13.15;;;6.22;;
23317;SDS011;11831;55.918;37.746;2022-12-07T11:56:44;11.07;;;6.05;;
23317;SDS011;11831;55.918;37.746;2022-12-07T12:02:15;9.10;;;7.03;;
23317;SDS011;11831;55.918;37.746;2022-12-07T12:05:35;9.82;;;6.50;;
23317;SDS011;11831;55.918;37.746;2022-12-07T12:07:42;10.07;;;5.97;;
23317;SDS011;11831;55.918;37.746;2022-12-07T12:10:18;9.77;;;6.30;;
23317;SDS011;11831;55.918;37.746;2022-12-07T12:13:25;12.07;;;6.30;;
23317;SDS011;11831;55.918;37.746;2022-12-07T12:21:41;9.52;;;5.95;;
23317;SDS011;11831;55.918;37.746;2022-12-07T12:24:12;10.80;;;7.03;;
23317;SDS011;11831;55.918;37.746;2022-12-07T12:26:50;11.88;;;6.85;;
23317;SDS011;11831;55.918;37.746;2022-12-07T12:29:26;11.82;;;6.07;;
23317;SDS011;11831;55.918;37.746;2022-12-07T12:32:06;12.93;;;6.43;;
23317;SDS011;11831;55.918;37.746;2022-12-07T12:37:47;12.35;;;7.72;;
23317;SDS011;11831;55.918;37.746;2022-12-07T12:42:49;12.30;;;6.90;;
23317;SDS011;11831;55.918;37.746;2022-12-07T12:47:58;12.85;;;6.53;;
23317;SDS011;11831;55.918;37.746;2022-12-07T12:58:30;13.35;;;7.60;;
23317;SDS011;11831;55.918;37.746;2022-12-07T13:03:54;15.32;;;7.90;;
23317;SDS011;11831;55.918;37.746;2022-12-07T13:08:51;14.38;;;8.07;;
23317;SDS011;11831;55.918;37.746;2022-12-07T13:11:30;19.50;;;8.77;;
23317;SDS011;11831;55.918;37.746;2022-12-07T13:17:10;16.40;;;8.27;;
23317;SDS011;11831;55.918;37.746;2022-12-07T13:27:43;14.57;;;7.75;;
23317;SDS011;11831;55.918;37.746;2022-12-07T13:30:23;13.70;;;7.78;;
23317;SDS011;11831;55.918;37.746;2022-12-07T13:32:57;13.50;;;7.37;;
23317;SDS011;11831;55.918;37.746;2022-12-07T13:37:55;15.48;;;8.05;;
23317;SDS011;11831;55.918;37.746;2022-12-07T13:40:22;13.62;;;7.72;;
23317;SDS011;11831;55.918;37.746;2022-12-07T13:43:03;15.15;;;7.72;;
23317;SDS011;11831;55.918;37.746;2022-12-07T13:45:38;13.85;;;7.95;;
23317;SDS011;11831;55.918;37.746;2022-12-07T13:48:15;13.95;;;8.85;;
23317;SDS011;11831;55.918;37.746;2022-12-07T13:50:57;21.05;;;8.85;;
23317;SDS011;11831;55.918;37.746;2022-12-07T13:53:24;16.62;;;7.72;;
23317;SDS011;11831;55.918;37.746;2022-12-07T13:55:58;12.85;;;8.02;;
23317;SDS011;11831;55.918;37.746;2022-12-07T13:58:26;20.77;;;9.10;;
23317;SDS011;11831;55.918;37.746;2022-12-07T14:00:56;15.80;;;8.93;;
23317;SDS011;11831;55.918;37.746;2022-12-07T14:03:32;19.48;;;9.13;;
23317;SDS011;11831;55.918;37.746;2022-12-07T14:06:07;15.88;;;9.00;;
23317;SDS011;11831;55.918;37.746;2022-12-07T14:08:48;19.65;;;10.13;;
23317;SDS011;11831;55.918;37.746;2022-12-07T14:11:16;18.12;;;10.07;;
23317;SDS011;11831;55.918;37.746;2022-12-07T14:13:51;16.15;;;8.98;;
23317;SDS011;11831;55.918;37.746;2022-12-07T14:16:30;17.37;;;8.57;;
23317;SDS011;11831;55.918;37.746;2022-12-07T14:18:59;20.12;;;8.30;;
23317;SDS011;11831;55.918;37.746;2022-12-07T14:21:29;16.08;;;8.35;;
23317;SDS011;11831;55.918;37.746;2022-12-07T14:24:17;15.68;;;8.05;;
23317;SDS011;11831;55.918;37.746;2022-12-07T14:26:46;15.82;;;8.65;;
23317;SDS011;11831;55.918;37.746;2022-12-07T14:31:56;19.27;;;8.50;;
23317;SDS011;11831;55.918;37.746;2022-12-07T14:34:25;18.80;;;9.38;;
23317;SDS011;11831;55.918;37.746;2022-12-07T14:36:52;14.68;;;8.45;;
23317;SDS011;11831;55.918;37.746;2022-12-07T14:39:18;15.77;;;8.55;;
23317;SDS011;11831;55.918;37.746;2022-12-07T14:41:45;18.10;;;9.10;;
23317;SDS011;11831;55.918;37.746;2022-12-07T14:44:20;17.17;;;8.38;;
23317;SDS011;11831;55.918;37.746;2022-12-07T14:46:48;15.57;;;8.70;;
23317;SDS011;11831;55.918;37.746;2022-12-07T14:49:16;15.35;;;8.43;;
23317;SDS011;11831;55.918;37.746;2022-12-07T14:51:43;19.55;;;8.68;;
23317;SDS011;11831;55.918;37.746;2022-12-07T14:54:18;19.30;;;9.52;;
23317;SDS011;11831;55.918;37.746;2022-12-07T14:56:46;14.73;;;8.35;;
23317;SDS011;11831;55.918;37.746;2022-12-07T14:59:17;17.77;;;8.20;;
23317;SDS011;11831;55.918;37.746;2022-12-07T15:01:44;16.75;;;8.60;;
23317;SDS011;11831;55.918;37.746;2022-12-07T15:04:11;13.80;;;8.82;;
23317;SDS011;11831;55.918;37.746;2022-12-07T15:06:37;16.45;;;8.73;;
23317;SDS011;11831;55.918;37.746;2022-12-07T15:09:05;15.30;;;8.63;;
23317;SDS011;11831;55.918;37.746;2022-12-07T15:11:32;15.25;;;8.82;;
23317;SDS011;11831;55.918;37.746;2022-12-07T15:13:58;14.00;;;8.57;;
23317;SDS011;11831;55.918;37.746;2022-12-07T15:16:34;15.20;;;8.40;;
23317;SDS011;11831;55.918;37.746;2022-12-07T15:19:02;17.87;;;8.82;;
23317;SDS011;11831;55.918;37.746;2022-12-07T15:21:29;17.42;;;8.52;;
23317;SDS011;11831;55.918;37.746;2022-12-07T15:23:56;17.12;;;8.65;;
23317;SDS011;11831;55.918;37.746;2022-12-07T15:26:22;15.57;;;9.00;;
23317;SDS011;11831;55.918;37.746;2022-12-07T15:28:49;19.60;;;8.30;;
23317;SDS011;11831;55.918;37.746;2022-12-07T15:31:16;17.92;;;8.75;;
23317;SDS011;11831;55.918;37.746;2022-12-07T15:33:43;14.10;;;7.80;;
23317;SDS011;11831;55.918;37.746;2022-12-07T15:36:15;14.52;;;8.27;;
23317;SDS011;11831;55.918;37.746;2022-12-07T15:38:46;19.27;;;8.43;;
23317;SDS011;11831;55.918;37.746;2022-12-07T15:41:13;15.25;;;8.20;;
23317;SDS011;11831;55.918;37.746;2022-12-07T15:43:40;13.00;;;7.87;;
23317;SDS011;11831;55.918;37.746;2022-12-07T15:46:35;16.65;;;8.02;;
23317;SDS011;11831;55.918;37.746;2022-12-07T15:49:08;19.33;;;8.63;;
23317;SDS011;11831;55.918;37.746;2022-12-07T15:51:45;15.02;;;8.18;;
23317;SDS011;11831;55.918;37.746;2022-12-07T15:54:16;15.40;;;8.45;;
23317;SDS011;11831;55.918;37.746;2022-12-07T15:56:46;16.12;;;8.60;;
23317;SDS011;11831;55.918;37.746;2022-12-07T15:59:12;17.77;;;8.50;;
23317;SDS011;11831;55.918;37.746;2022-12-07T16:01:39;13.50;;;7.60;;
23317;SDS011;11831;55.918;37.746;2022-12-07T16:04:05;13.18;;;7.68;;
23317;SDS011;11831;55.918;37.746;2022-12-07T16:06:32;16.08;;;8.05;;
23317;SDS011;11831;55.918;37.746;2022-12-07T16:08:59;17.20;;;8.50;;
23317;SDS011;11831;55.918;37.746;2022-12-07T16:11:25;19.73;;;9.27;;
23317;SDS011;11831;55.918;37.746;2022-12-07T16:13:52;15.88;;;8.55;;
23317;SDS011;11831;55.918;37.746;2022-12-07T16:16:18;18.17;;;9.18;;
23317;SDS011;11831;55.918;37.746;2022-12-07T16:18:48;18.55;;;8.75;;
23317;SDS011;11831;55.918;37.746;2022-12-07T16:21:16;18.02;;;8.65;;
23317;SDS011;11831;55.918;37.746;2022-12-07T16:23:43;16.83;;;9.15;;
23317;SDS011;11831;55.918;37.746;2022-12-07T16:26:11;17.62;;;9.45;;
23317;SDS011;11831;55.918;37.746;2022-12-07T16:28:41;16.48;;;8.68;;
23317;SDS011;11831;55.918;37.746;2022-12-07T16:31:15;15.70;;;8.55;;
23317;SDS011;11831;55.918;37.746;2022-12-07T16:33:43;16.10;;;8.48;;
23317;SDS011;11831;55.918;37.746;2022-12-07T16:36:10;15.85;;;8.13;;
23317;SDS011;11831;55.918;37.746;2022-12-07T16:38:39;14.50;;;7.93;;